sensor_id;sensor_type;location;lat;lon;timestamp;P1;durP1;ratioP1;P2;durP2;ratioP2
7575;SDS011;3829;50.798;4.358;2022-09-17T00:02:22;4.47;;;1.50;;
7575;SDS011;3829;50.798;4.358;2022-09-17T00:04:49;10.67;;;1.90;;
7575;SDS011;3829;50.798;4.358;2022-09-17T00:07:15;8.70;;;1.70;;
7575;SDS011;3829;50.798;4.358;2022-09-17T00:09:42;10.30;;;2.33;;
7575;SDS011;3829;50.798;4.358;2022-09-17T00:12:08;8.07;;;1.70;;
7575;SDS011;3829;50.798;4.358;2022-09-17T00:14:34;7.40;;;1.97;;
7575;SDS011;3829;50.798;4.358;2022-09-17T00:16:59;5.87;;;1.90;;
7575;SDS011;3829;50.798;4.358;2022-09-17T00:19:25;9.83;;;1.63;;
7575;SDS011;3829;50.798;4.358;2022-09-17T00:21:51;6.77;;;1.47;;
7575;SDS011;3829;50.798;4.358;2022-09-17T00:24:17;6.73;;;1.50;;
7575;SDS011;3829;50.798;4.358;2022-09-17T00:26:44;6.27;;;1.60;;
7575;SDS011;3829;50.798;4.358;2022-09-17T00:29:11;6.10;;;1.50;;
7575;SDS011;3829;50.798;4.358;2022-09-17T00:31:37;9.27;;;2.60;;
7575;SDS011;3829;50.798;4.358;2022-09-17T00:34:03;10.67;;;1.83;;
7575;SDS011;3829;50.798;4.358;2022-09-17T00:36:30;5.50;;;2.37;;
7575;SDS011;3829;50.798;4.358;2022-09-17T00:38:59;8.03;;;1.90;;
7575;SDS011;3829;50.798;4.358;2022-09-17T00:41:26;4.13;;;1.67;;
7575;SDS011;3829;50.798;4.358;2022-09-17T00:43:58;6.93;;;1.57;;
7575;SDS011;3829;50.798;4.358;2022-09-17T00:48:54;7.37;;;1.50;;
7575;SDS011;3829;50.798;4.358;2022-09-17T00:51:32;10.27;;;1.63;;
7575;SDS011;3829;50.798;4.358;2022-09-17T00:54:01;4.90;;;1.70;;
7575;SDS011;3829;50.798;4.358;2022-09-17T00:56:28;5.30;;;1.63;;
7575;SDS011;3829;50.798;4.358;2022-09-17T00:58:57;8.53;;;1.63;;
7575;SDS011;3829;50.798;4.358;2022-09-17T01:01:26;8.83;;;1.60;;
7575;SDS011;3829;50.798;4.358;2022-09-17T01:03:52;5.70;;;1.87;;
7575;SDS011;3829;50.798;4.358;2022-09-17T01:06:38;5.40;;;1.27;;
7575;SDS011;3829;50.798;4.358;2022-09-17T01:26:01;8.23;;;1.73;;
7575;SDS011;3829;50.798;4.358;2022-09-17T01:34:12;12.10;;;2.13;;
7575;SDS011;3829;50.798;4.358;2022-09-17T01:42:10;10.83;;;1.73;;
7575;SDS011;3829;50.798;4.358;2022-09-17T01:47:49;5.90;;;1.57;;
7575;SDS011;3829;50.798;4.358;2022-09-17T01:50:20;10.23;;;1.67;;
7575;SDS011;3829;50.798;4.358;2022-09-17T01:52:49;8.37;;;1.60;;
7575;SDS011;3829;50.798;4.358;2022-09-17T01:55:17;8.93;;;1.80;;
7575;SDS011;3829;50.798;4.358;2022-09-17T01:58:01;10.10;;;1.67;;
7575;SDS011;3829;50.798;4.358;2022-09-17T02:00:39;7.70;;;1.83;;
7575;SDS011;3829;50.798;4.358;2022-09-17T02:08:20;7.73;;;1.77;;
7575;SDS011;3829;50.798;4.358;2022-09-17T02:10:52;6.77;;;1.80;;
7575;SDS011;3829;50.798;4.358;2022-09-17T02:13:31;10.03;;;1.73;;
7575;SDS011;3829;50.798;4.358;2022-09-17T02:16:20;10.27;;;1.73;;
7575;SDS011;3829;50.798;4.358;2022-09-17T02:21:44;9.53;;;1.60;;
7575;SDS011;3829;50.798;4.358;2022-09-17T02:24:25;10.37;;;2.40;;
7575;SDS011;3829;50.798;4.358;2022-09-17T02:29:25;17.43;;;2.13;;
7575;SDS011;3829;50.798;4.358;2022-09-17T02:31:57;11.83;;;1.93;;
7575;SDS011;3829;50.798;4.358;2022-09-17T02:34:23;11.03;;;2.27;;
7575;SDS011;3829;50.798;4.358;2022-09-17T02:36:51;13.93;;;2.17;;
7575;SDS011;3829;50.798;4.358;2022-09-17T02:39:18;11.03;;;2.10;;
7575;SDS011;3829;50.798;4.358;2022-09-17T02:55:52;11.50;;;2.20;;
7575;SDS011;3829;50.798;4.358;2022-09-17T02:58:45;8.53;;;1.57;;
7575;SDS011;3829;50.798;4.358;2022-09-17T03:01:41;6.63;;;1.53;;
7575;SDS011;3829;50.798;4.358;2022-09-17T03:04:20;12.43;;;2.13;;
7575;SDS011;3829;50.798;4.358;2022-09-17T03:06:50;6.13;;;1.57;;
7575;SDS011;3829;50.798;4.358;2022-09-17T03:09:16;5.13;;;1.70;;
7575;SDS011;3829;50.798;4.358;2022-09-17T03:11:41;11.90;;;1.60;;
7575;SDS011;3829;50.798;4.358;2022-09-17T03:14:07;15.30;;;1.60;;
7575;SDS011;3829;50.798;4.358;2022-09-17T03:16:33;10.03;;;1.93;;
7575;SDS011;3829;50.798;4.358;2022-09-17T03:18:58;8.23;;;1.83;;
7575;SDS011;3829;50.798;4.358;2022-09-17T03:21:24;11.37;;;1.77;;
7575;SDS011;3829;50.798;4.358;2022-09-17T03:23:50;9.13;;;1.63;;
7575;SDS011;3829;50.798;4.358;2022-09-17T03:26:15;9.63;;;1.87;;
7575;SDS011;3829;50.798;4.358;2022-09-17T03:28:41;9.57;;;1.97;;
7575;SDS011;3829;50.798;4.358;2022-09-17T03:31:06;6.73;;;2.10;;
7575;SDS011;3829;50.798;4.358;2022-09-17T03:33:32;10.03;;;1.97;;
7575;SDS011;3829;50.798;4.358;2022-09-17T03:35:58;10.07;;;2.50;;
7575;SDS011;3829;50.798;4.358;2022-09-17T03:38:23;12.80;;;2.63;;
7575;SDS011;3829;50.798;4.358;2022-09-17T03:40:55;8.77;;;1.80;;
7575;SDS011;3829;50.798;4.358;2022-09-17T03:43:22;6.57;;;1.70;;
7575;SDS011;3829;50.798;4.358;2022-09-17T03:45:47;10.83;;;1.93;;
7575;SDS011;3829;50.798;4.358;2022-09-17T03:48:13;9.90;;;1.90;;
7575;SDS011;3829;50.798;4.358;2022-09-17T03:50:38;7.63;;;2.10;;
7575;SDS011;3829;50.798;4.358;2022-09-17T03:53:04;11.93;;;1.97;;
7575;SDS011;3829;50.798;4.358;2022-09-17T03:55:30;8.30;;;2.17;;
7575;SDS011;3829;50.798;4.358;2022-09-17T03:57:55;11.60;;;2.67;;
7575;SDS011;3829;50.798;4.358;2022-09-17T04:00:21;7.27;;;1.77;;
7575;SDS011;3829;50.798;4.358;2022-09-17T04:02:46;17.20;;;2.30;;
7575;SDS011;3829;50.798;4.358;2022-09-17T04:05:12;13.77;;;2.47;;
7575;SDS011;3829;50.798;4.358;2022-09-17T04:07:39;9.07;;;1.80;;
7575;SDS011;3829;50.798;4.358;2022-09-17T04:10:05;6.83;;;2.03;;
7575;SDS011;3829;50.798;4.358;2022-09-17T04:12:31;10.23;;;1.87;;
7575;SDS011;3829;50.798;4.358;2022-09-17T04:14:57;15.90;;;2.43;;
7575;SDS011;3829;50.798;4.358;2022-09-17T04:17:22;11.63;;;2.50;;
7575;SDS011;3829;50.798;4.358;2022-09-17T04:19:48;13.13;;;2.33;;
7575;SDS011;3829;50.798;4.358;2022-09-17T04:22:14;11.83;;;2.13;;
7575;SDS011;3829;50.798;4.358;2022-09-17T04:24:39;11.83;;;2.20;;
7575;SDS011;3829;50.798;4.358;2022-09-17T04:27:05;15.03;;;2.30;;
7575;SDS011;3829;50.798;4.358;2022-09-17T04:29:31;16.07;;;2.67;;
7575;SDS011;3829;50.798;4.358;2022-09-17T04:31:56;9.17;;;2.00;;
7575;SDS011;3829;50.798;4.358;2022-09-17T04:34:22;13.40;;;2.30;;
7575;SDS011;3829;50.798;4.358;2022-09-17T04:36:47;15.23;;;2.10;;
7575;SDS011;3829;50.798;4.358;2022-09-17T04:39:13;14.53;;;2.40;;
7575;SDS011;3829;50.798;4.358;2022-09-17T04:41:38;19.97;;;3.37;;
7575;SDS011;3829;50.798;4.358;2022-09-17T04:44:04;12.17;;;1.87;;
7575;SDS011;3829;50.798;4.358;2022-09-17T04:46:30;16.33;;;2.40;;
7575;SDS011;3829;50.798;4.358;2022-09-17T04:48:56;16.83;;;3.00;;
7575;SDS011;3829;50.798;4.358;2022-09-17T04:51:21;16.67;;;1.90;;
7575;SDS011;3829;50.798;4.358;2022-09-17T04:53:47;15.03;;;2.47;;
7575;SDS011;3829;50.798;4.358;2022-09-17T04:56:12;11.93;;;2.13;;
7575;SDS011;3829;50.798;4.358;2022-09-17T04:58:38;11.33;;;2.40;;
7575;SDS011;3829;50.798;4.358;2022-09-17T05:01:04;8.30;;;2.33;;
7575;SDS011;3829;50.798;4.358;2022-09-17T05:03:29;18.50;;;2.60;;
7575;SDS011;3829;50.798;4.358;2022-09-17T05:05:55;18.47;;;2.47;;
7575;SDS011;3829;50.798;4.358;2022-09-17T05:08:21;13.23;;;2.13;;
7575;SDS011;3829;50.798;4.358;2022-09-17T05:10:48;7.10;;;1.93;;
7575;SDS011;3829;50.798;4.358;2022-09-17T05:13:15;10.60;;;2.67;;
7575;SDS011;3829;50.798;4.358;2022-09-17T05:15:42;14.60;;;2.40;;
7575;SDS011;3829;50.798;4.358;2022-09-17T05:18:07;13.80;;;2.70;;
7575;SDS011;3829;50.798;4.358;2022-09-17T05:20:33;15.83;;;3.40;;
7575;SDS011;3829;50.798;4.358;2022-09-17T05:22:59;7.20;;;2.20;;
7575;SDS011;3829;50.798;4.358;2022-09-17T05:25:24;16.37;;;2.80;;
7575;SDS011;3829;50.798;4.358;2022-09-17T05:27:50;12.50;;;2.73;;
7575;SDS011;3829;50.798;4.358;2022-09-17T05:30:17;18.20;;;2.73;;
7575;SDS011;3829;50.798;4.358;2022-09-17T05:32:43;13.40;;;2.77;;
7575;SDS011;3829;50.798;4.358;2022-09-17T05:35:08;13.17;;;2.50;;
7575;SDS011;3829;50.798;4.358;2022-09-17T05:37:34;12.17;;;2.77;;
7575;SDS011;3829;50.798;4.358;2022-09-17T05:40:01;13.97;;;2.50;;
7575;SDS011;3829;50.798;4.358;2022-09-17T05:42:34;12.73;;;2.67;;
7575;SDS011;3829;50.798;4.358;2022-09-17T05:44:59;23.60;;;2.80;;
7575;SDS011;3829;50.798;4.358;2022-09-17T05:47:25;12.47;;;2.60;;
7575;SDS011;3829;50.798;4.358;2022-09-17T05:49:51;10.60;;;2.23;;
7575;SDS011;3829;50.798;4.358;2022-09-17T05:52:16;15.10;;;2.50;;
7575;SDS011;3829;50.798;4.358;2022-09-17T05:54:43;19.37;;;3.23;;
7575;SDS011;3829;50.798;4.358;2022-09-17T05:57:08;19.07;;;3.00;;
7575;SDS011;3829;50.798;4.358;2022-09-17T05:59:34;10.53;;;2.80;;
7575;SDS011;3829;50.798;4.358;2022-09-17T06:02:00;18.77;;;2.70;;
7575;SDS011;3829;50.798;4.358;2022-09-17T06:04:25;18.13;;;3.20;;
7575;SDS011;3829;50.798;4.358;2022-09-17T06:06:51;11.43;;;2.50;;
7575;SDS011;3829;50.798;4.358;2022-09-17T06:09:17;8.53;;;2.27;;
7575;SDS011;3829;50.798;4.358;2022-09-17T06:11:42;10.20;;;2.67;;
7575;SDS011;3829;50.798;4.358;2022-09-17T06:14:08;13.70;;;2.73;;
7575;SDS011;3829;50.798;4.358;2022-09-17T06:16:34;15.90;;;2.50;;
7575;SDS011;3829;50.798;4.358;2022-09-17T06:19:00;11.60;;;2.43;;
7575;SDS011;3829;50.798;4.358;2022-09-17T06:21:26;11.80;;;2.37;;
7575;SDS011;3829;50.798;4.358;2022-09-17T06:23:51;9.67;;;2.47;;
7575;SDS011;3829;50.798;4.358;2022-09-17T06:26:17;13.83;;;2.80;;
7575;SDS011;3829;50.798;4.358;2022-09-17T06:28:42;17.70;;;3.43;;
7575;SDS011;3829;50.798;4.358;2022-09-17T06:31:09;17.03;;;2.40;;
7575;SDS011;3829;50.798;4.358;2022-09-17T06:33:35;18.10;;;2.53;;
7575;SDS011;3829;50.798;4.358;2022-09-17T06:36:03;15.50;;;2.47;;
7575;SDS011;3829;50.798;4.358;2022-09-17T06:38:31;13.40;;;2.10;;
7575;SDS011;3829;50.798;4.358;2022-09-17T06:40:58;11.73;;;2.20;;
7575;SDS011;3829;50.798;4.358;2022-09-17T06:43:24;11.40;;;2.07;;
7575;SDS011;3829;50.798;4.358;2022-09-17T06:45:51;13.80;;;2.23;;
7575;SDS011;3829;50.798;4.358;2022-09-17T06:48:17;9.00;;;2.70;;
7575;SDS011;3829;50.798;4.358;2022-09-17T06:50:42;11.17;;;2.87;;
7575;SDS011;3829;50.798;4.358;2022-09-17T06:53:08;13.97;;;2.37;;
7575;SDS011;3829;50.798;4.358;2022-09-17T06:55:33;8.17;;;3.53;;
7575;SDS011;3829;50.798;4.358;2022-09-17T06:57:59;14.77;;;2.80;;
7575;SDS011;3829;50.798;4.358;2022-09-17T07:00:25;7.50;;;2.30;;
7575;SDS011;3829;50.798;4.358;2022-09-17T07:02:57;10.17;;;2.40;;
7575;SDS011;3829;50.798;4.358;2022-09-17T07:05:24;11.13;;;2.80;;
7575;SDS011;3829;50.798;4.358;2022-09-17T07:07:51;16.37;;;2.27;;
7575;SDS011;3829;50.798;4.358;2022-09-17T07:10:17;9.87;;;2.30;;
7575;SDS011;3829;50.798;4.358;2022-09-17T07:12:43;8.07;;;2.13;;
7575;SDS011;3829;50.798;4.358;2022-09-17T07:15:09;15.60;;;2.80;;
7575;SDS011;3829;50.798;4.358;2022-09-17T07:17:36;14.90;;;3.00;;
7575;SDS011;3829;50.798;4.358;2022-09-17T07:20:04;14.20;;;2.53;;
7575;SDS011;3829;50.798;4.358;2022-09-17T07:22:31;14.77;;;2.87;;
7575;SDS011;3829;50.798;4.358;2022-09-17T07:24:56;12.93;;;2.53;;
7575;SDS011;3829;50.798;4.358;2022-09-17T07:27:22;15.30;;;2.10;;
7575;SDS011;3829;50.798;4.358;2022-09-17T07:29:47;10.07;;;2.17;;
7575;SDS011;3829;50.798;4.358;2022-09-17T07:32:13;11.33;;;2.13;;
7575;SDS011;3829;50.798;4.358;2022-09-17T07:34:39;11.60;;;2.07;;
7575;SDS011;3829;50.798;4.358;2022-09-17T07:37:04;10.87;;;2.23;;
7575;SDS011;3829;50.798;4.358;2022-09-17T07:39:30;9.03;;;2.33;;
7575;SDS011;3829;50.798;4.358;2022-09-17T07:41:56;10.10;;;2.20;;
7575;SDS011;3829;50.798;4.358;2022-09-17T07:44:21;13.73;;;2.27;;
7575;SDS011;3829;50.798;4.358;2022-09-17T07:46:47;9.33;;;2.10;;
7575;SDS011;3829;50.798;4.358;2022-09-17T07:49:12;7.53;;;1.93;;
7575;SDS011;3829;50.798;4.358;2022-09-17T07:51:38;8.53;;;2.13;;
7575;SDS011;3829;50.798;4.358;2022-09-17T07:54:03;9.40;;;1.90;;
7575;SDS011;3829;50.798;4.358;2022-09-17T07:56:31;9.13;;;2.10;;
7575;SDS011;3829;50.798;4.358;2022-09-17T07:58:56;9.00;;;2.40;;
7575;SDS011;3829;50.798;4.358;2022-09-17T08:01:22;6.33;;;1.77;;
7575;SDS011;3829;50.798;4.358;2022-09-17T08:03:51;10.07;;;1.70;;
7575;SDS011;3829;50.798;4.358;2022-09-17T08:06:19;10.13;;;2.30;;
7575;SDS011;3829;50.798;4.358;2022-09-17T08:08:47;8.90;;;1.70;;
7575;SDS011;3829;50.798;4.358;2022-09-17T08:11:14;10.37;;;1.90;;
7575;SDS011;3829;50.798;4.358;2022-09-17T08:13:42;12.87;;;2.10;;
7575;SDS011;3829;50.798;4.358;2022-09-17T08:16:11;6.67;;;1.50;;
7575;SDS011;3829;50.798;4.358;2022-09-17T08:18:40;9.13;;;2.37;;
7575;SDS011;3829;50.798;4.358;2022-09-17T08:21:08;8.07;;;1.90;;
7575;SDS011;3829;50.798;4.358;2022-09-17T08:23:36;11.33;;;2.33;;
7575;SDS011;3829;50.798;4.358;2022-09-17T08:26:03;13.13;;;2.00;;
7575;SDS011;3829;50.798;4.358;2022-09-17T08:28:32;6.97;;;2.30;;
7575;SDS011;3829;50.798;4.358;2022-09-17T08:31:00;6.10;;;1.60;;
7575;SDS011;3829;50.798;4.358;2022-09-17T08:33:29;10.73;;;1.80;;
7575;SDS011;3829;50.798;4.358;2022-09-17T08:35:56;11.00;;;1.80;;
7575;SDS011;3829;50.798;4.358;2022-09-17T08:38:28;8.00;;;1.93;;
7575;SDS011;3829;50.798;4.358;2022-09-17T08:43:53;7.30;;;1.77;;
7575;SDS011;3829;50.798;4.358;2022-09-17T08:46:49;6.30;;;1.70;;
7575;SDS011;3829;50.798;4.358;2022-09-17T08:49:24;9.53;;;2.20;;
7575;SDS011;3829;50.798;4.358;2022-09-17T09:06:29;6.83;;;1.60;;
7575;SDS011;3829;50.798;4.358;2022-09-17T09:09:00;9.27;;;1.47;;
7575;SDS011;3829;50.798;4.358;2022-09-17T09:11:30;5.40;;;1.40;;
7575;SDS011;3829;50.798;4.358;2022-09-17T09:13:59;4.00;;;1.23;;
7575;SDS011;3829;50.798;4.358;2022-09-17T09:16:36;8.93;;;1.40;;
7575;SDS011;3829;50.798;4.358;2022-09-17T09:19:10;4.27;;;1.60;;
7575;SDS011;3829;50.798;4.358;2022-09-17T09:22:01;8.47;;;1.50;;
7575;SDS011;3829;50.798;4.358;2022-09-17T09:28:24;5.33;;;2.13;;
7575;SDS011;3829;50.798;4.358;2022-09-17T09:33:36;10.50;;;3.00;;
7575;SDS011;3829;50.798;4.358;2022-09-17T09:36:06;9.80;;;1.53;;
7575;SDS011;3829;50.798;4.358;2022-09-17T09:38:52;4.83;;;1.40;;
7575;SDS011;3829;50.798;4.358;2022-09-17T09:41:26;4.13;;;1.60;;
7575;SDS011;3829;50.798;4.358;2022-09-17T09:44:00;5.77;;;1.67;;
7575;SDS011;3829;50.798;4.358;2022-09-17T09:49:51;6.13;;;1.33;;
7575;SDS011;3829;50.798;4.358;2022-09-17T09:52:50;4.83;;;1.40;;
7575;SDS011;3829;50.798;4.358;2022-09-17T09:55:41;3.50;;;2.50;;
7575;SDS011;3829;50.798;4.358;2022-09-17T09:58:35;4.87;;;1.57;;
7575;SDS011;3829;50.798;4.358;2022-09-17T10:01:47;5.77;;;2.20;;
7575;SDS011;3829;50.798;4.358;2022-09-17T10:03:52;4.93;;;1.47;;
7575;SDS011;3829;50.798;4.358;2022-09-17T10:06:19;5.80;;;1.83;;
7575;SDS011;3829;50.798;4.358;2022-09-17T10:13:46;4.03;;;1.10;;
7575;SDS011;3829;50.798;4.358;2022-09-17T10:16:15;2.40;;;0.90;;
7575;SDS011;3829;50.798;4.358;2022-09-17T10:18:41;2.03;;;0.97;;
7575;SDS011;3829;50.798;4.358;2022-09-17T10:21:09;4.40;;;1.27;;
7575;SDS011;3829;50.798;4.358;2022-09-17T10:23:55;6.27;;;1.23;;
7575;SDS011;3829;50.798;4.358;2022-09-17T10:26:22;2.23;;;1.10;;
7575;SDS011;3829;50.798;4.358;2022-09-17T10:28:53;4.97;;;1.63;;
7575;SDS011;3829;50.798;4.358;2022-09-17T10:31:20;5.30;;;1.20;;
7575;SDS011;3829;50.798;4.358;2022-09-17T10:36:39;3.63;;;1.20;;
7575;SDS011;3829;50.798;4.358;2022-09-17T10:39:22;4.53;;;1.30;;
7575;SDS011;3829;50.798;4.358;2022-09-17T10:41:58;7.10;;;1.17;;
7575;SDS011;3829;50.798;4.358;2022-09-17T10:44:26;3.37;;;1.27;;
7575;SDS011;3829;50.798;4.358;2022-09-17T10:47:12;4.93;;;1.27;;
7575;SDS011;3829;50.798;4.358;2022-09-17T10:49:44;4.67;;;1.13;;
7575;SDS011;3829;50.798;4.358;2022-09-17T10:55:10;2.53;;;1.00;;
7575;SDS011;3829;50.798;4.358;2022-09-17T11:20:31;4.97;;;1.67;;
7575;SDS011;3829;50.798;4.358;2022-09-17T11:23:07;3.57;;;1.30;;
7575;SDS011;3829;50.798;4.358;2022-09-17T11:25:50;4.97;;;1.50;;
7575;SDS011;3829;50.798;4.358;2022-09-17T11:28:53;3.10;;;1.40;;
7575;SDS011;3829;50.798;4.358;2022-09-17T11:31:54;6.50;;;1.60;;
7575;SDS011;3829;50.798;4.358;2022-09-17T11:37:29;5.63;;;1.50;;
7575;SDS011;3829;50.798;4.358;2022-09-17T11:40:15;6.10;;;1.60;;
7575;SDS011;3829;50.798;4.358;2022-09-17T11:42:43;4.80;;;1.80;;
7575;SDS011;3829;50.798;4.358;2022-09-17T11:45:24;5.67;;;1.97;;
7575;SDS011;3829;50.798;4.358;2022-09-17T11:48:22;5.77;;;1.90;;
7575;SDS011;3829;50.798;4.358;2022-09-17T11:51:06;3.90;;;1.70;;
7575;SDS011;3829;50.798;4.358;2022-09-17T11:53:42;6.80;;;2.00;;
7575;SDS011;3829;50.798;4.358;2022-09-17T11:56:16;4.60;;;1.50;;
7575;SDS011;3829;50.798;4.358;2022-09-17T11:58:45;5.83;;;1.67;;
7575;SDS011;3829;50.798;4.358;2022-09-17T12:07:03;6.83;;;2.20;;
7575;SDS011;3829;50.798;4.358;2022-09-17T12:09:54;8.53;;;2.17;;
7575;SDS011;3829;50.798;4.358;2022-09-17T12:12:24;6.70;;;1.80;;
7575;SDS011;3829;50.798;4.358;2022-09-17T12:14:53;6.80;;;1.40;;
7575;SDS011;3829;50.798;4.358;2022-09-17T12:17:24;7.90;;;1.87;;
7575;SDS011;3829;50.798;4.358;2022-09-17T12:20:00;6.53;;;1.60;;
7575;SDS011;3829;50.798;4.358;2022-09-17T12:22:34;10.03;;;1.80;;
7575;SDS011;3829;50.798;4.358;2022-09-17T12:25:04;5.47;;;1.43;;
7575;SDS011;3829;50.798;4.358;2022-09-17T12:32:41;11.00;;;2.47;;
7575;SDS011;3829;50.798;4.358;2022-09-17T12:41:24;7.23;;;1.90;;
7575;SDS011;3829;50.798;4.358;2022-09-17T12:47:02;9.73;;;1.93;;
7575;SDS011;3829;50.798;4.358;2022-09-17T12:55:29;9.30;;;2.33;;
7575;SDS011;3829;50.798;4.358;2022-09-17T12:58:06;11.37;;;2.83;;
7575;SDS011;3829;50.798;4.358;2022-09-17T13:00:41;9.67;;;1.90;;
7575;SDS011;3829;50.798;4.358;2022-09-17T13:17:23;9.07;;;1.70;;
7575;SDS011;3829;50.798;4.358;2022-09-17T13:20:13;8.40;;;2.10;;
7575;SDS011;3829;50.798;4.358;2022-09-17T13:22:44;8.47;;;1.87;;
7575;SDS011;3829;50.798;4.358;2022-09-17T13:25:11;10.03;;;1.90;;
7575;SDS011;3829;50.798;4.358;2022-09-17T13:27:39;14.43;;;2.70;;
7575;SDS011;3829;50.798;4.358;2022-09-17T13:30:08;11.93;;;1.87;;
7575;SDS011;3829;50.798;4.358;2022-09-17T13:37:56;16.77;;;3.63;;
7575;SDS011;3829;50.798;4.358;2022-09-17T13:40:27;8.40;;;1.87;;
7575;SDS011;3829;50.798;4.358;2022-09-17T13:43:04;9.60;;;2.23;;
7575;SDS011;3829;50.798;4.358;2022-09-17T13:46:03;9.97;;;2.53;;
7575;SDS011;3829;50.798;4.358;2022-09-17T13:48:28;14.70;;;2.53;;
7575;SDS011;3829;50.798;4.358;2022-09-17T13:50:55;10.90;;;2.80;;
7575;SDS011;3829;50.798;4.358;2022-09-17T13:53:22;11.33;;;2.20;;
7575;SDS011;3829;50.798;4.358;2022-09-17T13:58:23;10.33;;;2.20;;
7575;SDS011;3829;50.798;4.358;2022-09-17T14:00:55;13.60;;;2.07;;
7575;SDS011;3829;50.798;4.358;2022-09-17T14:08:30;5.87;;;1.87;;
7575;SDS011;3829;50.798;4.358;2022-09-17T14:13:48;4.10;;;1.70;;
7575;SDS011;3829;50.798;4.358;2022-09-17T14:27:10;6.40;;;1.90;;
7575;SDS011;3829;50.798;4.358;2022-09-17T14:35:18;6.30;;;1.70;;
7575;SDS011;3829;50.798;4.358;2022-09-17T14:37:45;6.80;;;2.00;;
7575;SDS011;3829;50.798;4.358;2022-09-17T14:40:18;6.13;;;1.80;;
7575;SDS011;3829;50.798;4.358;2022-09-17T14:42:45;5.47;;;1.57;;
7575;SDS011;3829;50.798;4.358;2022-09-17T14:45:36;10.23;;;2.00;;
7575;SDS011;3829;50.798;4.358;2022-09-17T14:48:26;7.90;;;1.50;;
7575;SDS011;3829;50.798;4.358;2022-09-17T14:53:46;4.37;;;1.30;;
7575;SDS011;3829;50.798;4.358;2022-09-17T14:56:29;3.70;;;1.60;;
7575;SDS011;3829;50.798;4.358;2022-09-17T14:58:58;3.60;;;1.70;;
7575;SDS011;3829;50.798;4.358;2022-09-17T15:01:26;4.47;;;1.70;;
7575;SDS011;3829;50.798;4.358;2022-09-17T15:04:09;8.07;;;1.90;;
7575;SDS011;3829;50.798;4.358;2022-09-17T15:06:38;8.23;;;2.00;;
7575;SDS011;3829;50.798;4.358;2022-09-17T15:09:14;4.13;;;1.50;;
7575;SDS011;3829;50.798;4.358;2022-09-17T15:11:47;8.70;;;1.83;;
7575;SDS011;3829;50.798;4.358;2022-09-17T15:14:15;6.27;;;1.50;;
7575;SDS011;3829;50.798;4.358;2022-09-17T15:16:46;5.90;;;1.60;;
7575;SDS011;3829;50.798;4.358;2022-09-17T15:19:13;5.53;;;1.80;;
7575;SDS011;3829;50.798;4.358;2022-09-17T15:21:50;3.33;;;1.77;;
7575;SDS011;3829;50.798;4.358;2022-09-17T15:27:12;4.13;;;1.40;;
7575;SDS011;3829;50.798;4.358;2022-09-17T15:29:45;7.57;;;2.03;;
7575;SDS011;3829;50.798;4.358;2022-09-17T15:32:15;3.93;;;1.50;;
7575;SDS011;3829;50.798;4.358;2022-09-17T15:34:40;5.33;;;1.30;;
7575;SDS011;3829;50.798;4.358;2022-09-17T15:39:46;4.67;;;1.80;;
7575;SDS011;3829;50.798;4.358;2022-09-17T15:44:51;5.87;;;1.50;;
7575;SDS011;3829;50.798;4.358;2022-09-17T15:50:19;5.13;;;1.20;;
7575;SDS011;3829;50.798;4.358;2022-09-17T15:52:45;4.23;;;1.60;;
7575;SDS011;3829;50.798;4.358;2022-09-17T15:55:30;3.60;;;1.73;;
7575;SDS011;3829;50.798;4.358;2022-09-17T15:57:58;7.50;;;1.50;;
7575;SDS011;3829;50.798;4.358;2022-09-17T16:00:25;5.67;;;1.50;;
7575;SDS011;3829;50.798;4.358;2022-09-17T16:02:51;9.67;;;1.80;;
7575;SDS011;3829;50.798;4.358;2022-09-17T16:07:49;6.53;;;2.53;;
7575;SDS011;3829;50.798;4.358;2022-09-17T16:10:15;2.87;;;0.97;;
7575;SDS011;3829;50.798;4.358;2022-09-17T16:12:41;3.50;;;1.30;;
7575;SDS011;3829;50.798;4.358;2022-09-17T16:15:08;4.53;;;1.23;;
7575;SDS011;3829;50.798;4.358;2022-09-17T16:17:43;2.70;;;1.10;;
7575;SDS011;3829;50.798;4.358;2022-09-17T16:22:41;1.83;;;1.07;;
7575;SDS011;3829;50.798;4.358;2022-09-17T16:25:07;4.63;;;1.27;;
7575;SDS011;3829;50.798;4.358;2022-09-17T16:28:16;3.40;;;1.13;;
7575;SDS011;3829;50.798;4.358;2022-09-17T16:30:26;4.13;;;1.53;;
7575;SDS011;3829;50.798;4.358;2022-09-17T16:32:52;2.60;;;1.10;;
7575;SDS011;3829;50.798;4.358;2022-09-17T16:35:19;7.53;;;1.07;;
7575;SDS011;3829;50.798;4.358;2022-09-17T16:37:48;4.33;;;1.10;;
7575;SDS011;3829;50.798;4.358;2022-09-17T16:40:15;4.50;;;1.20;;
7575;SDS011;3829;50.798;4.358;2022-09-17T16:42:41;5.37;;;1.43;;
7575;SDS011;3829;50.798;4.358;2022-09-17T16:45:07;4.97;;;1.60;;
7575;SDS011;3829;50.798;4.358;2022-09-17T16:47:34;6.93;;;1.60;;
7575;SDS011;3829;50.798;4.358;2022-09-17T16:50:04;5.80;;;1.23;;
7575;SDS011;3829;50.798;4.358;2022-09-17T16:52:32;4.00;;;1.40;;
7575;SDS011;3829;50.798;4.358;2022-09-17T16:54:58;6.20;;;1.57;;
7575;SDS011;3829;50.798;4.358;2022-09-17T16:57:24;2.73;;;1.30;;
7575;SDS011;3829;50.798;4.358;2022-09-17T16:59:50;3.20;;;1.47;;
7575;SDS011;3829;50.798;4.358;2022-09-17T17:02:15;3.83;;;1.33;;
7575;SDS011;3829;50.798;4.358;2022-09-17T17:04:41;5.23;;;1.87;;
7575;SDS011;3829;50.798;4.358;2022-09-17T17:07:07;4.93;;;1.70;;
7575;SDS011;3829;50.798;4.358;2022-09-17T17:09:32;10.37;;;2.60;;
7575;SDS011;3829;50.798;4.358;2022-09-17T17:11:58;9.53;;;1.90;;
7575;SDS011;3829;50.798;4.358;2022-09-17T17:14:23;3.73;;;1.40;;
7575;SDS011;3829;50.798;4.358;2022-09-17T17:16:49;9.13;;;1.73;;
7575;SDS011;3829;50.798;4.358;2022-09-17T17:19:14;4.87;;;1.60;;
7575;SDS011;3829;50.798;4.358;2022-09-17T17:21:41;7.03;;;1.90;;
7575;SDS011;3829;50.798;4.358;2022-09-17T17:24:07;8.00;;;1.87;;
7575;SDS011;3829;50.798;4.358;2022-09-17T17:26:32;7.83;;;2.60;;
7575;SDS011;3829;50.798;4.358;2022-09-17T17:28:58;9.00;;;2.00;;
7575;SDS011;3829;50.798;4.358;2022-09-17T17:31:24;3.73;;;1.50;;
7575;SDS011;3829;50.798;4.358;2022-09-17T17:33:49;10.27;;;2.27;;
7575;SDS011;3829;50.798;4.358;2022-09-17T17:36:15;9.53;;;2.30;;
7575;SDS011;3829;50.798;4.358;2022-09-17T17:38:41;10.17;;;1.93;;
7575;SDS011;3829;50.798;4.358;2022-09-17T17:41:10;9.90;;;2.40;;
7575;SDS011;3829;50.798;4.358;2022-09-17T17:43:38;7.40;;;1.97;;
7575;SDS011;3829;50.798;4.358;2022-09-17T17:46:04;8.30;;;1.97;;
7575;SDS011;3829;50.798;4.358;2022-09-17T17:48:32;6.63;;;1.73;;
7575;SDS011;3829;50.798;4.358;2022-09-17T17:51:05;8.47;;;2.40;;
7575;SDS011;3829;50.798;4.358;2022-09-17T17:53:32;5.83;;;2.37;;
7575;SDS011;3829;50.798;4.358;2022-09-17T17:55:59;7.60;;;2.60;;
7575;SDS011;3829;50.798;4.358;2022-09-17T17:58:27;9.53;;;2.23;;
7575;SDS011;3829;50.798;4.358;2022-09-17T18:00:53;11.13;;;3.33;;
7575;SDS011;3829;50.798;4.358;2022-09-17T18:03:19;8.93;;;2.70;;
7575;SDS011;3829;50.798;4.358;2022-09-17T18:05:49;11.23;;;1.97;;
7575;SDS011;3829;50.798;4.358;2022-09-17T18:08:20;8.53;;;3.00;;
7575;SDS011;3829;50.798;4.358;2022-09-17T18:10:55;10.77;;;2.63;;
7575;SDS011;3829;50.798;4.358;2022-09-17T18:13:24;11.93;;;2.50;;
7575;SDS011;3829;50.798;4.358;2022-09-17T18:15:53;11.97;;;2.43;;
7575;SDS011;3829;50.798;4.358;2022-09-17T18:18:23;13.50;;;4.40;;
7575;SDS011;3829;50.798;4.358;2022-09-17T18:20:53;10.63;;;3.07;;
7575;SDS011;3829;50.798;4.358;2022-09-17T18:23:25;11.10;;;3.30;;
7575;SDS011;3829;50.798;4.358;2022-09-17T18:25:54;11.13;;;3.43;;
7575;SDS011;3829;50.798;4.358;2022-09-17T18:28:22;12.93;;;2.70;;
7575;SDS011;3829;50.798;4.358;2022-09-17T18:30:48;9.33;;;3.27;;
7575;SDS011;3829;50.798;4.358;2022-09-17T18:33:18;11.00;;;3.03;;
7575;SDS011;3829;50.798;4.358;2022-09-17T18:35:45;13.27;;;3.63;;
7575;SDS011;3829;50.798;4.358;2022-09-17T18:38:14;11.67;;;3.30;;
7575;SDS011;3829;50.798;4.358;2022-09-17T18:40:40;8.67;;;2.33;;
7575;SDS011;3829;50.798;4.358;2022-09-17T18:43:06;15.00;;;3.07;;
7575;SDS011;3829;50.798;4.358;2022-09-17T18:45:32;11.90;;;2.53;;
7575;SDS011;3829;50.798;4.358;2022-09-17T18:47:57;9.97;;;3.93;;
7575;SDS011;3829;50.798;4.358;2022-09-17T18:50:23;7.70;;;2.10;;
7575;SDS011;3829;50.798;4.358;2022-09-17T18:52:48;19.40;;;4.03;;
7575;SDS011;3829;50.798;4.358;2022-09-17T18:55:14;8.27;;;2.60;;
7575;SDS011;3829;50.798;4.358;2022-09-17T18:57:40;8.90;;;2.87;;
7575;SDS011;3829;50.798;4.358;2022-09-17T19:00:06;11.07;;;3.53;;